Time;durP1;ratioP1;P1;durP2;ratioP2;P2;SDS_P1;SDS_P2;PMS_P1;PMS_P2;Temp;Humidity;BMP_temperature;BMP_pressure;BME280_temperature;BME280_humidity;BME280_pressure;Samples;Min_cycle;Max_cycle;Signal;HPM_P1;HPM_P2
2024/03/06 00:02:07;;;;;;;13.07;9.83;;;5.60;99.90;;;;;;5013793;28;20580;-62
2024/03/06 00:04:35;;;;;;;14.80;10.57;;;5.60;99.90;;;;;;5015008;28;20488;-61
2024/03/06 00:07:04;;;;;;;11.30;10.00;;;5.70;99.90;;;;;;5014542;28;20471;-61
2024/03/06 00:09:32;;;;;;;12.70;9.47;;;5.60;99.90;;;;;;5017875;28;20531;-62
2024/03/06 00:12:00;;;;;;;11.20;9.70;;;5.60;99.90;;;;;;5011177;28;20551;-61
2024/03/06 00:14:28;;;;;;;11.33;9.93;;;5.60;99.90;;;;;;5016660;28;20487;-62
2024/03/06 00:16:57;;;;;;;9.97;8.90;;;5.60;99.90;;;;;;5015167;28;21055;-61
2024/03/06 00:19:25;;;;;;;12.20;9.23;;;5.60;99.90;;;;;;5011952;28;20506;-62
2024/03/06 00:21:53;;;;;;;14.07;9.60;;;5.60;99.90;;;;;;5012491;28;20595;-61
2024/03/06 00:24:22;;;;;;;10.50;8.43;;;5.60;99.90;;;;;;5010753;28;20579;-62
2024/03/06 00:26:50;;;;;;;11.30;9.00;;;5.60;99.90;;;;;;5016076;28;20534;-61
2024/03/06 00:29:18;;;;;;;10.23;8.30;;;5.60;99.90;;;;;;5017004;28;20582;-62
2024/03/06 00:31:47;;;;;;;10.60;8.50;;;5.60;99.90;;;;;;5011834;28;20474;-62
2024/03/06 00:34:16;;;;;;;10.07;9.00;;;5.60;99.90;;;;;;5012974;28;20521;-62
2024/03/06 00:36:45;;;;;;;10.17;9.17;;;5.60;99.90;;;;;;5014866;28;20499;-62
2024/03/06 00:39:14;;;;;;;9.87;8.83;;;5.60;99.90;;;;;;5015266;28;21019;-62
2024/03/06 00:41:42;;;;;;;9.37;8.07;;;5.60;99.90;;;;;;5011974;28;20500;-61
2024/03/06 00:44:10;;;;;;;9.40;8.50;;;5.60;99.90;;;;;;5015902;28;20909;-62
2024/03/06 00:46:40;;;;;;;9.10;8.17;;;5.60;99.90;;;;;;5014717;28;20479;-61
2024/03/06 00:49:08;;;;;;;11.07;9.07;;;5.60;99.90;;;;;;5013683;28;20573;-61
2024/03/06 00:51:37;;;;;;;10.13;8.37;;;5.60;99.90;;;;;;5012371;28;20563;-61
2024/03/06 00:54:16;;;;;;;10.53;8.43;;;5.60;99.90;;;;;;5012251;28;20542;-62
2024/03/06 00:56:44;;;;;;;11.13;8.57;;;5.60;99.90;;;;;;5008217;28;20472;-62
2024/03/06 00:59:12;;;;;;;12.53;8.63;;;5.60;99.90;;;;;;5011861;28;20949;-63
2024/03/06 01:01:41;;;;;;;9.37;8.40;;;5.60;99.90;;;;;;5014113;28;20512;-62
2024/03/06 01:04:09;;;;;;;11.60;8.87;;;5.60;99.90;;;;;;5014529;28;20483;-61
2024/03/06 01:06:38;;;;;;;10.20;8.87;;;5.60;99.90;;;;;;5015300;28;20476;-62
2024/03/06 01:09:06;;;;;;;9.80;8.60;;;5.50;99.90;;;;;;5012160;28;20575;-62
2024/03/06 01:11:34;;;;;;;11.80;9.00;;;5.60;99.90;;;;;;5012785;28;20464;-62
2024/03/06 01:14:03;;;;;;;13.20;9.73;;;5.60;99.90;;;;;;5013061;28;20479;-60
2024/03/06 01:16:31;;;;;;;11.83;8.60;;;5.60;99.90;;;;;;5015351;28;20482;-61
2024/03/06 01:18:59;;;;;;;13.63;9.93;;;5.60;99.90;;;;;;5010350;28;20496;-61
2024/03/06 01:21:28;;;;;;;9.80;8.60;;;5.50;99.90;;;;;;5014130;28;20533;-62
2024/03/06 01:23:58;;;;;;;11.03;9.03;;;5.60;99.90;;;;;;5013303;28;20841;-62
2024/03/06 01:26:26;;;;;;;11.33;8.90;;;5.60;99.90;;;;;;5012814;28;20480;-62
2024/03/06 01:28:54;;;;;;;10.67;8.57;;;5.60;99.90;;;;;;5013134;28;20589;-61
2024/03/06 01:31:22;;;;;;;11.30;9.10;;;5.60;99.90;;;;;;5010838;28;20504;-62
2024/03/06 01:33:50;;;;;;;8.97;8.07;;;5.50;99.90;;;;;;5014138;28;20479;-62
2024/03/06 01:36:18;;;;;;;10.83;9.00;;;5.50;99.90;;;;;;5016034;28;21035;-62
2024/03/06 01:38:46;;;;;;;10.53;8.80;;;5.50;99.90;;;;;;5012308;28;20557;-61
2024/03/06 01:41:15;;;;;;;11.47;9.03;;;5.50;99.90;;;;;;5019938;28;20475;-63
2024/03/06 01:43:44;;;;;;;9.57;8.00;;;5.50;99.90;;;;;;5016653;28;20482;-63
2024/03/06 01:46:12;;;;;;;9.90;8.90;;;5.50;99.90;;;;;;5017021;28;20479;-63
2024/03/06 01:48:42;;;;;;;11.00;8.17;;;5.50;99.90;;;;;;5018195;28;20503;-62
2024/03/06 01:51:10;;;;;;;8.90;8.00;;;5.50;99.90;;;;;;5017145;28;20907;-63
2024/03/06 01:53:39;;;;;;;10.63;8.17;;;5.50;99.90;;;;;;5019139;28;20569;-63
2024/03/06 01:56:11;;;;;;;11.77;8.80;;;5.50;99.90;;;;;;5016874;28;20471;-63
2024/03/06 01:58:42;;;;;;;9.40;8.13;;;5.60;99.90;;;;;;5019311;28;20474;-63
2024/03/06 02:01:10;;;;;;;9.63;8.33;;;5.50;99.90;;;;;;5017886;28;20873;-63
2024/03/06 02:03:38;;;;;;;11.77;8.90;;;5.50;99.90;;;;;;5015134;28;20562;-63
2024/03/06 02:06:11;;;;;;;9.50;8.13;;;5.50;99.90;;;;;;5017098;28;20471;-63
2024/03/06 02:08:39;;;;;;;11.63;8.10;;;5.50;99.90;;;;;;5016004;28;20490;-64
2024/03/06 02:11:07;;;;;;;9.73;8.17;;;5.50;99.90;;;;;;5014034;28;21043;-63
2024/03/06 02:13:35;;;;;;;9.93;8.37;;;5.50;99.90;;;;;;5015670;28;20540;-63
2024/03/06 02:16:05;;;;;;;11.37;8.90;;;5.50;99.90;;;;;;5017231;28;20483;-63
2024/03/06 02:18:33;;;;;;;11.60;8.40;;;5.50;99.90;;;;;;5017782;28;20475;-63
2024/03/06 02:21:02;;;;;;;13.80;8.83;;;5.50;99.90;;;;;;5015238;28;20476;-63
2024/03/06 02:23:31;;;;;;;11.00;8.03;;;5.50;99.90;;;;;;5016643;28;20494;-63
2024/03/06 02:25:59;;;;;;;9.37;8.30;;;5.50;99.90;;;;;;5011131;28;20467;-63
2024/03/06 02:28:27;;;;;;;8.73;7.83;;;5.50;99.90;;;;;;5017297;28;20480;-63
2024/03/06 02:30:55;;;;;;;9.57;7.80;;;5.50;99.90;;;;;;5011801;28;20562;-63
2024/03/06 02:33:23;;;;;;;8.93;8.03;;;5.50;99.90;;;;;;5014431;28;21039;-63
2024/03/06 02:35:51;;;;;;;8.70;7.80;;;5.50;99.90;;;;;;5018832;28;20472;-62
2024/03/06 02:38:20;;;;;;;9.40;8.40;;;5.50;99.90;;;;;;5015771;28;20473;-63
2024/03/06 02:40:48;;;;;;;8.77;7.90;;;5.50;99.90;;;;;;5016648;28;24300;-63
2024/03/06 02:43:17;;;;;;;8.60;7.43;;;5.40;99.90;;;;;;5016679;28;21028;-63
2024/03/06 02:45:44;;;;;;;9.77;7.50;;;5.40;99.90;;;;;;5014901;28;20499;-63
2024/03/06 02:48:12;;;;;;;9.80;8.30;;;5.40;99.90;;;;;;5011941;28;20555;-63
2024/03/06 02:50:40;;;;;;;9.80;7.90;;;5.50;99.90;;;;;;5016105;28;20495;-63
2024/03/06 02:53:08;;;;;;;14.90;7.77;;;5.40;99.90;;;;;;5016714;28;20494;-63
2024/03/06 02:55:38;;;;;;;8.23;7.43;;;5.40;99.90;;;;;;5013904;28;20523;-63
2024/03/06 02:58:06;;;;;;;9.13;7.80;;;5.40;99.90;;;;;;5011976;28;20468;-63
2024/03/06 03:00:34;;;;;;;9.10;7.40;;;5.40;99.90;;;;;;5014746;28;20498;-62
2024/03/06 03:03:02;;;;;;;9.20;6.70;;;5.30;99.90;;;;;;5017730;28;20492;-63
2024/03/06 03:05:30;;;;;;;8.70;7.80;;;5.30;99.90;;;;;;5015400;28;20512;-63
2024/03/06 03:07:58;;;;;;;7.80;7.10;;;5.30;99.90;;;;;;5015790;28;20467;-63
2024/03/06 03:10:27;;;;;;;8.07;7.00;;;5.30;99.90;;;;;;5015539;28;21046;-62
2024/03/06 03:12:56;;;;;;;10.00;7.70;;;5.30;99.90;;;;;;5017385;28;20522;-63
2024/03/06 03:15:24;;;;;;;8.07;7.30;;;5.30;99.90;;;;;;5013271;28;22224;-63
2024/03/06 03:17:52;;;;;;;10.00;7.70;;;5.30;99.90;;;;;;5013208;28;20479;-62
2024/03/06 03:20:20;;;;;;;9.60;7.63;;;5.30;99.90;;;;;;5017285;28;20488;-63
2024/03/06 03:22:49;;;;;;;8.20;7.47;;;5.30;99.90;;;;;;5010579;28;20495;-63
2024/03/06 03:25:17;;;;;;;8.93;7.73;;;5.30;99.90;;;;;;5016709;28;20498;-63
2024/03/06 03:27:45;;;;;;;10.00;7.07;;;5.30;99.90;;;;;;5015566;28;20499;-63
2024/03/06 03:30:15;;;;;;;8.87;7.23;;;5.30;99.90;;;;;;5017139;28;20492;-63
2024/03/06 03:32:45;;;;;;;11.20;7.47;;;5.20;99.90;;;;;;5016155;28;20496;-63
2024/03/06 03:35:13;;;;;;;8.13;7.17;;;5.20;99.90;;;;;;5014664;28;20520;-63
2024/03/06 03:37:41;;;;;;;9.73;7.60;;;5.20;99.90;;;;;;5012775;28;20464;-63
2024/03/06 03:40:11;;;;;;;9.00;6.80;;;5.20;99.90;;;;;;5018060;28;20500;-63
2024/03/06 03:42:39;;;;;;;7.30;6.60;;;5.10;99.90;;;;;;5015405;28;20501;-63
2024/03/06 03:45:08;;;;;;;7.83;7.10;;;5.10;99.90;;;;;;5013350;28;21100;-63
2024/03/06 03:47:38;;;;;;;10.80;7.50;;;5.10;99.90;;;;;;5013279;28;20468;-63
2024/03/06 03:50:08;;;;;;;9.80;7.10;;;5.10;99.90;;;;;;5011255;28;20498;-63
2024/03/06 03:52:41;;;;;;;7.50;6.70;;;5.00;99.90;;;;;;5015850;28;20480;-63
2024/03/06 03:55:10;;;;;;;9.93;6.97;;;5.00;99.90;;;;;;5015156;28;20573;-63
2024/03/06 03:57:38;;;;;;;8.40;6.90;;;5.00;99.90;;;;;;5016117;28;20471;-63
2024/03/06 04:00:10;;;;;;;9.10;7.13;;;5.00;99.90;;;;;;5014471;28;20490;-63
2024/03/06 04:02:40;;;;;;;7.60;6.80;;;4.90;99.90;;;;;;5013042;28;20478;-63
2024/03/06 04:05:09;;;;;;;10.00;7.67;;;4.90;99.90;;;;;;5013963;28;20523;-63
2024/03/06 04:07:37;;;;;;;9.10;7.27;;;4.90;99.90;;;;;;5014506;28;20548;-62
2024/03/06 04:10:06;;;;;;;8.67;7.40;;;4.90;99.90;;;;;;5012956;28;20967;-63
2024/03/06 04:12:34;;;;;;;7.37;6.30;;;4.80;99.90;;;;;;5015151;28;20479;-63
2024/03/06 04:15:03;;;;;;;7.20;6.50;;;4.80;99.90;;;;;;5013825;28;20480;-63
2024/03/06 04:17:31;;;;;;;8.03;6.77;;;4.70;99.90;;;;;;5015191;28;20908;-63
2024/03/06 04:20:01;;;;;;;8.10;6.47;;;4.70;99.90;;;;;;5011154;28;20911;-62
2024/03/06 04:22:29;;;;;;;8.63;6.67;;;4.70;99.90;;;;;;5013089;28;20479;-63
2024/03/06 04:24:58;;;;;;;10.73;6.63;;;4.70;99.90;;;;;;5015441;28;20500;-62
2024/03/06 04:27:26;;;;;;;8.53;7.07;;;4.60;99.90;;;;;;5007189;28;20464;-63
2024/03/06 04:29:54;;;;;;;7.13;6.10;;;4.60;99.90;;;;;;5013032;28;20499;-63
2024/03/06 04:32:22;;;;;;;8.37;7.60;;;4.60;99.90;;;;;;5011921;28;20482;-63
2024/03/06 04:34:50;;;;;;;8.33;6.23;;;4.60;99.90;;;;;;5013369;28;20488;-63
2024/03/06 04:37:20;;;;;;;9.60;8.57;;;4.60;99.90;;;;;;5013659;28;20859;-63
2024/03/06 04:39:48;;;;;;;7.80;6.77;;;4.50;99.90;;;;;;5015039;28;20510;-63
2024/03/06 04:42:16;;;;;;;7.40;6.70;;;4.50;99.90;;;;;;5013637;28;20504;-63
2024/03/06 04:44:46;;;;;;;7.00;6.00;;;4.50;99.90;;;;;;5014610;28;20570;-63
2024/03/06 04:47:15;;;;;;;8.07;6.87;;;4.50;99.90;;;;;;5014852;28;20552;-63
2024/03/06 04:49:43;;;;;;;6.97;5.87;;;4.40;99.90;;;;;;5009080;28;21300;-62
2024/03/06 04:52:11;;;;;;;7.10;6.40;;;4.40;99.90;;;;;;5014705;28;20468;-63
2024/03/06 04:54:40;;;;;;;7.97;6.80;;;4.40;99.90;;;;;;5012776;28;20489;-63
2024/03/06 04:57:08;;;;;;;8.67;6.10;;;4.40;99.90;;;;;;5016309;28;20494;-63
2024/03/06 04:59:36;;;;;;;8.43;6.70;;;4.40;99.90;;;;;;5013283;28;20526;-62
2024/03/06 05:02:04;;;;;;;7.13;6.43;;;4.40;99.90;;;;;;5011307;28;21025;-63
2024/03/06 05:04:33;;;;;;;7.47;6.50;;;4.40;99.90;;;;;;5013966;28;20501;-63
2024/03/06 05:07:18;;;;;;;6.97;5.90;;;4.30;99.90;;;;;;5015474;28;20471;-62
2024/03/06 05:10:07;;;;;;;7.90;6.40;;;4.30;99.90;;;;;;5015610;28;20480;-62
2024/03/06 05:12:53;;;;;;;6.70;6.00;;;4.30;99.90;;;;;;5016295;28;20470;-63
2024/03/06 05:15:39;;;;;;;6.23;5.63;;;4.20;99.90;;;;;;5016580;28;20479;-62
2024/03/06 05:18:25;;;;;;;7.57;6.23;;;4.20;99.90;;;;;;5015452;28;20525;-61
2024/03/06 05:21:11;;;;;;;7.67;6.87;;;4.20;99.90;;;;;;5017290;28;20498;-63
2024/03/06 05:23:57;;;;;;;7.90;6.60;;;4.20;99.90;;;;;;5017560;28;20642;-63
2024/03/06 05:26:44;;;;;;;7.03;6.30;;;4.20;99.90;;;;;;5014431;28;22192;-63
2024/03/06 05:29:29;;;;;;;11.17;6.77;;;4.20;99.90;;;;;;5014539;28;20500;-63
2024/03/06 05:32:15;;;;;;;7.50;6.13;;;4.20;99.90;;;;;;5011565;28;20546;-63
2024/03/06 05:35:00;;;;;;;9.20;6.83;;;4.10;99.90;;;;;;5013921;28;20851;-62
2024/03/06 05:37:46;;;;;;;8.67;7.77;;;4.10;99.90;;;;;;5021011;28;20597;-61
2024/03/06 05:40:35;;;;;;;7.23;6.53;;;4.10;99.90;;;;;;5014380;28;20506;-62
2024/03/06 05:43:22;;;;;;;7.13;6.43;;;4.00;99.90;;;;;;5013317;28;20517;-62
2024/03/06 05:46:08;;;;;;;8.70;6.20;;;4.00;99.90;;;;;;5011894;28;21082;-61
2024/03/06 05:48:53;;;;;;;7.77;6.97;;;4.00;99.90;;;;;;5018341;28;20485;-61
2024/03/06 05:51:39;;;;;;;7.10;6.30;;;3.90;99.90;;;;;;5012746;28;20458;-61
2024/03/06 05:54:25;;;;;;;7.53;6.43;;;3.90;99.90;;;;;;5014243;28;21145;-62
2024/03/06 05:57:11;;;;;;;7.60;6.90;;;3.90;99.90;;;;;;5018856;28;20505;-63
2024/03/06 05:59:58;;;;;;;8.53;7.00;;;3.90;99.90;;;;;;5009535;28;20525;-62
2024/03/06 06:02:27;;;;;;;8.30;7.00;;;3.90;99.90;;;;;;5008767;28;20601;-62
2024/03/06 06:04:55;;;;;;;7.37;6.50;;;3.80;99.90;;;;;;5015127;28;20852;-61
2024/03/06 06:07:43;;;;;;;8.53;7.30;;;3.80;99.90;;;;;;5002295;28;20467;-61
2024/03/06 06:10:11;;;;;;;8.17;7.37;;;3.80;99.90;;;;;;5016751;28;21013;-63
2024/03/06 06:12:39;;;;;;;7.07;6.37;;;3.70;99.90;;;;;;5012397;28;21077;-62
2024/03/06 06:15:09;;;;;;;7.90;7.10;;;3.70;99.90;;;;;;5012907;28;20906;-62
2024/03/06 06:17:38;;;;;;;7.47;6.77;;;3.70;99.90;;;;;;5016697;28;21039;-62
2024/03/06 06:20:09;;;;;;;9.37;8.00;;;3.70;99.90;;;;;;5014747;28;20580;-62
2024/03/06 06:22:38;;;;;;;8.30;7.40;;;3.70;99.90;;;;;;5017729;28;20507;-62
2024/03/06 06:25:07;;;;;;;8.67;7.40;;;3.70;99.90;;;;;;5013957;28;20479;-63
2024/03/06 06:27:35;;;;;;;9.37;7.00;;;3.60;99.90;;;;;;5001984;28;20554;-61
2024/03/06 06:30:03;;;;;;;8.53;7.67;;;3.60;99.90;;;;;;5009262;28;20526;-62
2024/03/06 06:32:35;;;;;;;8.20;7.40;;;3.50;99.90;;;;;;5008613;28;20572;-62
2024/03/06 06:35:04;;;;;;;7.60;6.90;;;3.50;99.90;;;;;;5011091;28;20476;-61
2024/03/06 06:37:34;;;;;;;9.80;7.87;;;3.50;99.90;;;;;;5014851;28;20464;-62
2024/03/06 06:40:06;;;;;;;8.53;7.40;;;3.50;99.90;;;;;;5015454;28;21021;-61
2024/03/06 06:42:34;;;;;;;9.37;7.80;;;3.50;99.90;;;;;;5006890;28;20475;-62
2024/03/06 06:45:02;;;;;;;10.47;8.57;;;3.50;99.90;;;;;;5013356;28;20499;-62
2024/03/06 06:47:30;;;;;;;11.67;10.47;;;3.50;99.90;;;;;;5015379;28;20473;-62
2024/03/06 06:50:00;;;;;;;11.50;9.70;;;3.50;99.90;;;;;;5016969;28;20721;-62
2024/03/06 06:52:28;;;;;;;11.67;9.30;;;3.50;99.90;;;;;;5014301;28;20472;-62
2024/03/06 06:54:56;;;;;;;10.73;8.90;;;3.50;99.90;;;;;;5015478;28;20512;-62
2024/03/06 06:57:24;;;;;;;9.93;8.50;;;3.50;99.90;;;;;;5013016;28;20476;-61
2024/03/06 06:59:53;;;;;;;10.27;8.70;;;3.50;99.90;;;;;;5016507;28;21103;-61
2024/03/06 07:02:21;;;;;;;11.90;8.83;;;3.60;99.90;;;;;;5016973;28;20969;-62
2024/03/06 07:04:49;;;;;;;8.73;7.50;;;3.60;99.90;;;;;;5016766;28;20953;-62
2024/03/06 07:07:19;;;;;;;9.50;8.27;;;3.60;99.90;;;;;;5013457;28;20471;-61
2024/03/06 07:09:47;;;;;;;9.87;8.30;;;3.60;99.90;;;;;;5014463;28;20516;-62
2024/03/06 07:12:15;;;;;;;8.73;7.93;;;3.70;99.90;;;;;;5016001;28;20499;-62
2024/03/06 07:14:43;;;;;;;9.30;8.07;;;3.70;99.90;;;;;;5016177;28;20489;-62
2024/03/06 07:17:11;;;;;;;10.00;9.00;;;3.80;99.90;;;;;;5016492;28;20475;-62
2024/03/06 07:19:39;;;;;;;12.33;9.20;;;3.80;99.90;;;;;;5017948;28;20987;-63
2024/03/06 07:22:08;;;;;;;9.80;8.40;;;3.80;99.90;;;;;;5018176;28;20556;-63
2024/03/06 07:24:37;;;;;;;11.03;8.00;;;3.80;99.90;;;;;;5015463;28;21121;-63
2024/03/06 07:27:08;;;;;;;9.40;8.40;;;3.90;99.90;;;;;;5014944;28;20958;-62
2024/03/06 07:29:36;;;;;;;9.40;8.47;;;3.90;99.90;;;;;;5010097;28;20498;-62
2024/03/06 07:32:06;;;;;;;8.90;8.00;;;3.90;99.90;;;;;;5014424;28;20957;-63
2024/03/06 07:34:34;;;;;;;8.27;7.47;;;3.90;99.90;;;;;;5014684;28;20488;-63
2024/03/06 07:37:02;;;;;;;9.03;8.13;;;4.00;99.90;;;;;;5015035;28;20546;-63
2024/03/06 07:39:34;;;;;;;12.10;8.53;;;4.00;99.90;;;;;;5014477;28;20492;-63
2024/03/06 07:42:04;;;;;;;9.10;8.20;;;4.00;99.90;;;;;;5016160;28;20479;-62
2024/03/06 07:44:32;;;;;;;9.20;7.50;;;4.10;99.90;;;;;;5013950;28;20494;-62
2024/03/06 07:47:00;;;;;;;8.60;7.80;;;4.10;99.90;;;;;;5015546;28;20480;-62
2024/03/06 07:49:28;;;;;;;10.30;8.33;;;4.10;99.90;;;;;;5013763;28;20491;-63
2024/03/06 07:51:57;;;;;;;9.90;7.53;;;4.20;99.90;;;;;;5016846;28;20462;-63
2024/03/06 07:54:24;;;;;;;8.53;7.10;;;4.20;99.90;;;;;;5018375;28;20484;-63
2024/03/06 07:56:53;;;;;;;8.33;7.57;;;4.30;99.90;;;;;;5013633;28;20489;-62
2024/03/06 07:59:22;;;;;;;8.80;7.40;;;4.30;99.90;;;;;;5014352;28;20495;-63
2024/03/06 08:01:52;;;;;;;9.77;7.53;;;4.40;99.90;;;;;;5017422;28;20479;-63
2024/03/06 08:04:20;;;;;;;9.80;7.37;;;4.40;99.90;;;;;;5015144;28;20574;-63
2024/03/06 08:06:48;;;;;;;8.40;7.40;;;4.50;99.90;;;;;;5017125;28;20519;-63
2024/03/06 08:09:16;;;;;;;8.77;7.50;;;4.50;99.90;;;;;;5012036;28;20515;-62
2024/03/06 08:11:44;;;;;;;7.70;6.90;;;4.50;99.90;;;;;;5017514;28;20473;-63
2024/03/06 08:14:14;;;;;;;7.60;6.90;;;4.60;99.90;;;;;;5015242;28;20500;-63
2024/03/06 08:16:44;;;;;;;8.20;7.00;;;4.70;99.90;;;;;;5017343;28;20473;-63
2024/03/06 08:19:12;;;;;;;6.97;6.27;;;4.70;99.90;;;;;;5015878;28;20499;-63
2024/03/06 08:21:40;;;;;;;8.20;6.90;;;4.80;99.90;;;;;;5014883;28;20881;-63
2024/03/06 08:24:08;;;;;;;8.77;6.50;;;4.80;99.90;;;;;;5013889;28;20922;-62
2024/03/06 08:26:36;;;;;;;8.90;6.40;;;4.80;99.90;;;;;;5011090;28;20586;-63
2024/03/06 08:29:04;;;;;;;7.97;6.53;;;4.90;99.90;;;;;;5012580;28;21082;-63
2024/03/06 08:31:32;;;;;;;7.87;6.67;;;4.90;99.90;;;;;;5015410;28;20475;-63
2024/03/06 08:34:02;;;;;;;8.20;6.60;;;5.00;99.90;;;;;;5011666;28;20575;-63
2024/03/06 08:36:30;;;;;;;7.77;6.97;;;5.10;99.90;;;;;;5012358;28;20489;-62
2024/03/06 08:38:58;;;;;;;8.30;6.50;;;5.10;99.90;;;;;;5013754;28;20578;-63
2024/03/06 08:41:26;;;;;;;7.57;6.73;;;5.20;99.90;;;;;;5016338;28;20521;-63
2024/03/06 08:43:54;;;;;;;7.43;6.73;;;5.30;99.90;;;;;;5018087;28;20476;-63
2024/03/06 08:46:23;;;;;;;7.83;7.10;;;5.30;99.90;;;;;;5014992;28;20592;-62
2024/03/06 08:48:51;;;;;;;8.27;7.00;;;5.40;99.90;;;;;;5011138;28;20579;-63
2024/03/06 08:51:22;;;;;;;9.17;7.53;;;5.40;99.90;;;;;;5011054;28;20563;-63
2024/03/06 08:53:50;;;;;;;7.63;6.80;;;5.50;99.90;;;;;;5012808;28;20558;-63
2024/03/06 08:56:18;;;;;;;8.37;7.50;;;5.60;99.90;;;;;;5010732;28;20521;-63
2024/03/06 08:58:46;;;;;;;7.47;6.73;;;5.60;99.90;;;;;;5014175;28;21493;-63
2024/03/06 09:01:14;;;;;;;7.23;6.60;;;5.70;99.90;;;;;;5014949;28;20467;-62
2024/03/06 09:03:42;;;;;;;9.70;7.40;;;5.70;99.90;;;;;;5014899;28;20530;-63
2024/03/06 09:06:12;;;;;;;8.00;6.90;;;5.70;99.90;;;;;;5016059;28;20561;-66
2024/03/06 09:08:42;;;;;;;7.43;6.53;;;5.80;99.90;;;;;;5015101;28;20566;-66
2024/03/06 09:11:10;;;;;;;7.33;6.63;;;5.80;99.90;;;;;;5016253;28;20559;-67
2024/03/06 09:13:38;;;;;;;7.63;6.40;;;5.90;99.90;;;;;;5014469;28;21211;-64
2024/03/06 09:16:07;;;;;;;9.43;6.20;;;5.90;99.90;;;;;;5017179;28;20492;-65
2024/03/06 09:18:35;;;;;;;7.13;6.30;;;6.00;99.90;;;;;;5015426;28;20550;-65
2024/03/06 09:21:03;;;;;;;7.67;6.87;;;6.00;99.90;;;;;;5012493;28;20483;-65
2024/03/06 09:23:32;;;;;;;7.20;6.30;;;6.10;99.90;;;;;;5013132;28;20486;-64
2024/03/06 09:26:02;;;;;;;7.30;6.17;;;6.10;99.90;;;;;;5010860;28;20499;-65
2024/03/06 09:28:30;;;;;;;7.30;6.60;;;6.10;99.90;;;;;;5014671;28;21001;-64
2024/03/06 09:30:58;;;;;;;8.10;7.30;;;6.20;99.90;;;;;;5016280;28;20538;-63
2024/03/06 09:33:26;;;;;;;7.03;6.07;;;6.20;99.90;;;;;;5011870;28;20467;-66
2024/03/06 09:35:55;;;;;;;9.03;7.47;;;6.30;99.90;;;;;;5013458;28;20470;-63
2024/03/06 09:38:24;;;;;;;7.40;6.70;;;6.40;99.90;;;;;;5014512;28;20487;-64
2024/03/06 09:40:52;;;;;;;10.73;8.03;;;6.40;99.90;;;;;;5012901;28;20483;-63
2024/03/06 09:43:21;;;;;;;7.50;6.70;;;6.50;99.90;;;;;;5014262;28;20521;-63
2024/03/06 09:45:51;;;;;;;7.80;6.63;;;6.60;99.90;;;;;;5012371;28;20717;-64
2024/03/06 09:48:21;;;;;;;7.47;6.70;;;6.70;99.90;;;;;;5017891;28;20563;-64
2024/03/06 09:50:52;;;;;;;7.77;6.97;;;6.80;99.90;;;;;;5012607;28;20491;-62
2024/03/06 09:53:22;;;;;;;8.90;6.93;;;6.90;99.90;;;;;;5014462;28;20787;-61
2024/03/06 09:55:51;;;;;;;7.40;6.70;;;7.00;99.90;;;;;;5010758;28;20472;-62
2024/03/06 09:58:21;;;;;;;7.47;6.60;;;7.10;99.90;;;;;;5020004;28;20472;-62
2024/03/06 10:00:51;;;;;;;7.50;6.80;;;7.20;99.90;;;;;;5019019;28;20515;-62
2024/03/06 10:03:20;;;;;;;7.40;6.57;;;7.30;99.90;;;;;;5019670;28;20468;-62
2024/03/06 10:05:48;;;;;;;10.53;7.20;;;7.30;99.90;;;;;;5014107;28;20471;-62
2024/03/06 10:08:16;;;;;;;8.43;7.30;;;7.50;99.90;;;;;;5014282;28;21098;-62
2024/03/06 10:10:45;;;;;;;8.70;7.80;;;7.60;99.90;;;;;;5015276;28;20497;-62
2024/03/06 10:13:14;;;;;;;11.53;8.17;;;7.60;99.90;;;;;;5015086;28;21003;-62
2024/03/06 10:15:43;;;;;;;10.67;9.00;;;7.60;99.90;;;;;;5015523;28;20476;-64
2024/03/06 10:18:12;;;;;;;8.93;8.03;;;7.60;99.90;;;;;;5018944;28;20536;-62
2024/03/06 10:20:43;;;;;;;10.37;9.03;;;7.70;99.90;;;;;;5016926;28;20907;-63
2024/03/06 10:23:11;;;;;;;10.60;8.47;;;7.70;99.90;;;;;;5018004;28;20476;-62
2024/03/06 10:25:40;;;;;;;8.27;7.47;;;7.80;99.90;;;;;;5014089;28;20487;-63
2024/03/06 10:28:09;;;;;;;9.70;8.00;;;7.90;99.90;;;;;;5015298;28;20494;-65
2024/03/06 10:30:41;;;;;;;8.97;8.07;;;8.00;99.90;;;;;;5017418;28;21085;-65
2024/03/06 10:33:12;;;;;;;11.47;8.87;;;8.10;99.90;;;;;;5017369;28;20605;-64
2024/03/06 10:35:41;;;;;;;10.20;9.13;;;8.20;99.90;;;;;;5018550;28;20495;-64
2024/03/06 10:38:11;;;;;;;10.10;8.80;;;8.20;99.90;;;;;;5016941;28;20475;-65
2024/03/06 10:40:40;;;;;;;12.40;8.90;;;8.20;99.90;;;;;;5017156;28;21089;-65
2024/03/06 10:43:10;;;;;;;9.47;8.47;;;8.20;99.90;;;;;;5020121;28;20476;-64
2024/03/06 10:45:43;;;;;;;9.63;8.63;;;8.30;99.90;;;;;;5017922;28;21001;-62
2024/03/06 10:48:14;;;;;;;10.13;8.73;;;8.30;99.90;;;;;;5020090;28;20594;-60
2024/03/06 10:50:44;;;;;;;9.70;8.70;;;8.40;99.90;;;;;;5018719;28;20490;-64
2024/03/06 10:53:13;;;;;;;11.70;9.00;;;8.40;99.90;;;;;;5017113;28;21019;-64
2024/03/06 10:55:50;;;;;;;9.47;8.47;;;8.50;99.90;;;;;;5010444;28;20613;-64
2024/03/06 10:58:20;;;;;;;10.23;8.10;;;8.70;99.90;;;;;;5016603;28;20468;-63
2024/03/06 11:00:49;;;;;;;10.30;8.40;;;8.80;99.90;;;;;;5016208;28;20567;-63
2024/03/06 11:03:19;;;;;;;10.67;9.30;;;8.90;99.90;;;;;;5016863;28;20977;-62
2024/03/06 11:05:50;;;;;;;9.97;8.97;;;9.00;99.90;;;;;;5017747;28;20464;-65
2024/03/06 11:08:19;;;;;;;9.40;8.50;;;9.00;99.90;;;;;;5013264;28;20891;-65
2024/03/06 11:10:47;;;;;;;10.50;9.20;;;9.10;99.90;;;;;;5014284;28;21017;-65
2024/03/06 11:13:25;;;;;;;9.07;8.17;;;9.20;99.90;;;;;;5018610;28;20480;-65
2024/03/06 11:15:58;;;;;;;10.63;8.80;;;9.30;99.90;;;;;;5009289;28;20472;-65
2024/03/06 11:18:46;;;;;;;9.43;8.50;;;9.40;99.90;;;;;;5015639;28;20549;-66
2024/03/06 11:21:31;;;;;;;9.60;8.60;;;9.50;99.90;;;;;;5015281;28;21253;-66
2024/03/06 11:24:22;;;;;;;10.03;8.97;;;9.70;99.90;;;;;;5014661;28;21024;-64
2024/03/06 11:26:57;;;;;;;9.83;8.90;;;9.80;99.90;;;;;;5020463;28;20544;-64
2024/03/06 11:29:28;;;;;;;8.13;7.40;;;9.90;99.90;;;;;;5017074;28;20550;-64
2024/03/06 11:32:06;;;;;;;11.97;8.47;;;10.00;99.90;;;;;;5017776;28;20924;-64
2024/03/06 11:34:37;;;;;;;9.23;8.30;;;10.20;99.90;;;;;;5012450;28;20490;-62
2024/03/06 11:37:09;;;;;;;9.70;8.70;;;10.40;99.90;;;;;;5016712;28;20474;-63
2024/03/06 11:39:38;;;;;;;9.20;8.30;;;10.50;99.90;;;;;;5015252;28;20495;-65
2024/03/06 11:42:08;;;;;;;9.77;8.87;;;10.50;99.90;;;;;;5018964;28;20513;-64
2024/03/06 11:44:37;;;;;;;9.43;8.53;;;10.60;99.90;;;;;;5024596;28;20479;-63
2024/03/06 11:47:08;;;;;;;10.03;7.90;;;10.70;99.90;;;;;;5029994;28;20513;-63
2024/03/06 11:49:38;;;;;;;9.70;8.70;;;10.70;99.90;;;;;;5033136;28;20491;-64
2024/03/06 11:52:09;;;;;;;9.57;8.57;;;10.70;99.90;;;;;;5032164;28;20483;-64
2024/03/06 11:54:38;;;;;;;11.00;8.50;;;10.90;99.90;;;;;;5022082;28;20491;-63
2024/03/06 11:57:07;;;;;;;8.90;8.00;;;11.00;99.90;;;;;;5015444;28;20542;-64
2024/03/06 11:59:38;;;;;;;9.67;8.67;;;11.20;99.90;;;;;;5011607;28;20503;-64
2024/03/06 12:02:09;;;;;;;9.93;8.93;;;11.40;99.90;;;;;;5013337;28;20467;-64
2024/03/06 12:04:39;;;;;;;9.67;8.73;;;11.60;99.90;;;;;;5013935;28;20487;-62
2024/03/06 12:07:08;;;;;;;9.67;8.67;;;11.60;99.90;;;;;;5010947;28;20471;-62
2024/03/06 12:09:39;;;;;;;10.60;9.50;;;11.50;99.90;;;;;;5015599;28;20491;-62
2024/03/06 12:12:11;;;;;;;10.47;9.00;;;11.50;99.90;;;;;;5016697;28;20467;-62
2024/03/06 12:14:40;;;;;;;9.80;8.90;;;11.50;99.90;;;;;;5014918;28;20499;-61
2024/03/06 12:17:14;;;;;;;9.53;8.63;;;11.40;99.90;;;;;;5017865;28;20474;-64
2024/03/06 12:19:45;;;;;;;9.83;8.90;;;11.30;99.90;;;;;;5011758;28;20496;-65
2024/03/06 12:22:15;;;;;;;9.13;8.27;;;11.40;99.90;;;;;;5012113;28;22722;-64
2024/03/06 12:24:43;;;;;;;10.77;9.77;;;11.30;99.90;;;;;;5014554;28;20899;-65
2024/03/06 12:27:12;;;;;;;10.03;8.80;;;11.20;99.90;;;;;;5013875;28;21187;-65
2024/03/06 12:29:41;;;;;;;9.70;8.80;;;11.20;99.90;;;;;;5010465;28;20505;-65
2024/03/06 12:32:18;;;;;;;11.30;9.37;;;11.10;99.90;;;;;;5011630;28;20570;-64
2024/03/06 12:34:59;;;;;;;9.13;8.23;;;11.10;99.90;;;;;;5014793;28;20530;-64
2024/03/06 12:37:32;;;;;;;8.87;8.00;;;11.00;99.90;;;;;;5010624;28;20472;-64
2024/03/06 12:40:00;;;;;;;9.90;8.60;;;10.90;99.90;;;;;;5016416;28;20492;-65
2024/03/06 12:42:29;;;;;;;9.07;8.17;;;10.90;99.90;;;;;;5014670;28;21003;-65
2024/03/06 12:44:57;;;;;;;10.03;9.00;;;10.90;99.90;;;;;;5013093;28;20575;-65
2024/03/06 12:47:25;;;;;;;9.60;8.27;;;10.80;99.90;;;;;;5016572;28;20935;-65
2024/03/06 12:49:53;;;;;;;12.90;8.77;;;10.80;99.90;;;;;;5018547;28;20570;-65
2024/03/06 12:52:23;;;;;;;9.83;8.87;;;10.80;99.90;;;;;;5018008;28;21138;-64
2024/03/06 12:54:51;;;;;;;10.57;9.40;;;10.70;99.90;;;;;;5009404;28;20518;-65
2024/03/06 12:57:19;;;;;;;9.00;8.10;;;10.70;99.90;;;;;;5016782;28;20479;-64
2024/03/06 12:59:47;;;;;;;12.87;8.47;;;10.70;99.90;;;;;;5015903;28;20526;-65
2024/03/06 13:02:15;;;;;;;9.33;8.13;;;10.60;99.90;;;;;;5014915;28;20566;-64
2024/03/06 13:04:44;;;;;;;10.37;8.73;;;10.70;99.90;;;;;;5008553;28;20541;-64
2024/03/06 13:07:12;;;;;;;9.07;8.17;;;10.80;99.90;;;;;;5015462;28;20525;-65
2024/03/06 13:09:42;;;;;;;8.50;7.70;;;10.90;99.90;;;;;;5016051;28;20503;-65